Time;durP1;ratioP1;P1;durP2;ratioP2;P2;SDS_P1;SDS_P2;PMS_P1;PMS_P2;Temp;Humidity;BMP_temperature;BMP_pressure;BME280_temperature;BME280_humidity;BME280_pressure;Samples;Min_cycle;Max_cycle;Signal;HPM_P1;HPM_P2
2022/04/07 00:02:14;;;;;;;11.67;7.47;;;;;;;7.62;100.00;97356.13;7382878;19;20418;-52
2022/04/07 00:04:43;;;;;;;7.83;5.47;;;;;;;7.67;100.00;97356.13;7395102;19;20398;-54
2022/04/07 00:07:13;;;;;;;9.77;5.93;;;;;;;7.62;100.00;97352.69;7385004;19;20415;-54
2022/04/07 00:09:42;;;;;;;11.97;7.43;;;;;;;7.61;100.00;97354.41;7388327;19;20425;-52
2022/04/07 00:12:14;;;;;;;8.60;5.30;;;;;;;7.56;100.00;97341.59;7383683;19;20421;-51
2022/04/07 00:14:44;;;;;;;9.57;6.20;;;;;;;7.58;100.00;97339.00;7388815;19;20388;-49
2022/04/07 00:17:13;;;;;;;11.43;8.80;;;;;;;7.62;100.00;97334.72;7391243;19;20943;-53
2022/04/07 00:19:43;;;;;;;10.47;8.57;;;;;;;7.62;100.00;97335.59;7395713;19;20780;-52
2022/04/07 00:22:13;;;;;;;8.73;7.37;;;;;;;7.65;100.00;97330.44;7391323;19;20428;-55
2022/04/07 00:24:42;;;;;;;11.87;8.10;;;;;;;7.66;100.00;97336.44;7398795;19;20395;-53
2022/04/07 00:27:14;;;;;;;10.17;5.20;;;;;;;7.69;100.00;97314.19;7393481;19;20443;-51
2022/04/07 00:29:44;;;;;;;8.73;6.23;;;;;;;7.64;100.00;97315.91;7395691;19;20963;-54
2022/04/07 00:32:13;;;;;;;8.70;5.90;;;;;;;7.72;100.00;97310.78;7390065;19;20418;-54
2022/04/07 00:34:46;;;;;;;11.77;5.53;;;;;;;7.70;100.00;97307.38;7395495;19;20424;-53
2022/04/07 00:37:16;;;;;;;9.73;7.20;;;;;;;7.70;100.00;97308.19;7388470;19;20490;-52
2022/04/07 00:39:45;;;;;;;7.03;5.00;;;;;;;7.75;100.00;97307.34;7395049;19;20501;-55
2022/04/07 00:42:17;;;;;;;8.40;5.90;;;;;;;7.72;100.00;97302.22;7393136;19;20978;-53
2022/04/07 00:44:47;;;;;;;10.80;7.63;;;;;;;7.74;100.00;97303.09;7398466;19;20375;-55
2022/04/07 00:47:16;;;;;;;10.40;4.60;;;;;;;7.75;100.00;97305.63;7393315;19;20504;-52
2022/04/07 00:49:46;;;;;;;7.47;5.63;;;;;;;7.82;100.00;97285.94;7395722;19;20407;-51
2022/04/07 00:52:16;;;;;;;5.60;3.50;;;;;;;7.80;100.00;97303.06;7392609;19;20766;-53
2022/04/07 00:54:46;;;;;;;6.97;4.93;;;;;;;7.76;100.00;97296.22;7395951;19;20403;-53
2022/04/07 00:57:18;;;;;;;8.13;5.27;;;;;;;7.81;100.00;97285.06;7392881;19;20415;-49
2022/04/07 00:59:48;;;;;;;7.80;3.70;;;;;;;7.76;100.00;97279.13;7395227;19;20756;-53
2022/04/07 01:02:17;;;;;;;13.63;7.70;;;;;;;7.84;100.00;97263.69;7388981;19;20428;-51
2022/04/07 01:04:48;;;;;;;9.73;5.17;;;;;;;7.82;100.00;97257.72;7399054;19;20395;-48
2022/04/07 01:07:17;;;;;;;8.93;5.10;;;;;;;7.83;100.00;97256.84;7391216;19;20955;-49
2022/04/07 01:09:47;;;;;;;6.70;4.77;;;;;;;7.80;100.00;97260.28;7394535;19;20426;-54
2022/04/07 01:12:19;;;;;;;8.37;5.93;;;;;;;7.79;100.00;97255.16;7389711;19;20435;-53
2022/04/07 01:14:56;;;;;;;8.17;5.53;;;;;;;7.75;100.00;97253.47;7395418;19;20380;-53
2022/04/07 01:17:25;;;;;;;8.77;4.27;;;;;;;7.73;100.00;97244.91;7391501;19;20410;-52
2022/04/07 01:19:55;;;;;;;8.53;6.20;;;;;;;7.74;100.00;97226.09;7394762;19;20929;-52
2022/04/07 01:22:25;;;;;;;8.70;6.43;;;;;;;7.71;100.00;97232.09;7392588;19;20415;-52
2022/04/07 01:24:58;;;;;;;11.00;6.57;;;;;;;7.72;100.00;97222.66;7397141;19;20384;-51
2022/04/07 01:27:27;;;;;;;7.37;6.20;;;;;;;7.73;100.00;97214.13;7387632;19;20429;-51
2022/04/07 01:29:57;;;;;;;9.53;6.20;;;;;;;7.64;100.00;97210.72;7394646;19;20423;-54
2022/04/07 01:32:35;;;;;;;7.20;5.13;;;;;;;7.61;100.00;97209.88;7386821;19;20422;-52
2022/04/07 01:35:05;;;;;;;8.10;5.70;;;;;;;7.56;100.00;97191.94;7395255;19;20376;-54
2022/04/07 01:37:36;;;;;;;8.20;5.93;;;;;;;7.55;100.00;97200.50;7388466;19;20436;-54
2022/04/07 01:40:11;;;;;;;9.90;6.77;;;;;;;7.57;100.00;97180.81;7394304;19;20409;-53
2022/04/07 01:42:41;;;;;;;12.80;7.70;;;;;;;7.55;100.00;97182.53;7386944;19;20959;-55
2022/04/07 01:45:12;;;;;;;8.67;5.53;;;;;;;7.51;100.00;97184.25;7396759;19;20379;-52
2022/04/07 01:47:43;;;;;;;10.37;7.50;;;;;;;7.59;100.00;97176.53;7384268;19;20446;-50
2022/04/07 01:50:14;;;;;;;10.80;8.50;;;;;;;7.60;100.00;97162.84;7398304;19;20396;-53
2022/04/07 01:52:45;;;;;;;14.50;8.93;;;;;;;7.60;100.00;97168.00;7390329;19;20510;-52
2022/04/07 01:55:18;;;;;;;14.30;8.87;;;;;;;7.64;100.00;97167.09;7394765;19;20378;-52
2022/04/07 01:57:47;;;;;;;6.93;4.67;;;;;;;7.62;100.00;97161.13;7391163;19;20496;-49
2022/04/07 02:00:17;;;;;;;12.10;8.77;;;;;;;7.68;100.00;97155.09;7396345;19;20380;-51
2022/04/07 02:02:48;;;;;;;11.13;8.00;;;;;;;7.66;100.00;97157.69;7390970;19;20470;-52
2022/04/07 02:05:18;;;;;;;10.70;6.63;;;;;;;7.65;100.00;97147.44;7396350;19;20384;-53
2022/04/07 02:07:47;;;;;;;10.23;8.03;;;;;;;7.74;100.00;97138.84;7388047;19;20422;-49
2022/04/07 02:10:19;;;;;;;11.03;6.70;;;;;;;7.67;100.00;97146.56;7395300;19;20467;-53
2022/04/07 02:12:49;;;;;;;12.37;6.60;;;;;;;7.70;100.00;97140.56;7387769;19;20407;-55
2022/04/07 02:15:19;;;;;;;10.50;8.50;;;;;;;7.68;100.00;97129.44;7394675;19;20392;-52
2022/04/07 02:17:48;;;;;;;11.20;8.47;;;;;;;7.60;100.00;97132.06;7385305;19;20429;-52
2022/04/07 02:20:17;;;;;;;8.17;5.97;;;;;;;7.64;100.00;97126.03;7395943;19;20716;-53
2022/04/07 02:22:47;;;;;;;8.93;4.60;;;;;;;7.62;100.00;97125.22;7390026;19;20411;-48
2022/04/07 02:25:22;;;;;;;13.13;8.30;;;;;;;7.66;100.00;97121.78;7396178;19;20398;-49
2022/04/07 02:27:52;;;;;;;6.43;4.20;;;;;;;7.63;100.00;97108.94;7390038;19;20415;-53
2022/04/07 02:30:22;;;;;;;9.77;7.50;;;;;;;7.62;100.00;97109.81;7395659;19;20386;-49
2022/04/07 02:32:51;;;;;;;9.60;6.20;;;;;;;7.62;100.00;97111.50;7388484;19;20454;-53
2022/04/07 02:35:21;;;;;;;10.90;4.87;;;;;;;7.64;100.00;97094.41;7394227;19;20918;-54
2022/04/07 02:37:51;;;;;;;11.63;6.20;;;;;;;7.68;100.00;97099.53;7385402;19;20760;-54
2022/04/07 02:40:23;;;;;;;6.67;4.20;;;;;;;7.68;100.00;97093.53;7395176;19;20387;-49
2022/04/07 02:42:52;;;;;;;8.07;4.80;;;;;;;7.69;100.00;97093.53;7389819;19;20410;-51
2022/04/07 02:45:22;;;;;;;6.57;5.10;;;;;;;7.69;100.00;97085.81;7395199;19;20466;-52
2022/04/07 02:47:51;;;;;;;11.03;7.00;;;;;;;7.73;100.00;97071.25;7387603;19;20434;-51
2022/04/07 02:50:21;;;;;;;10.00;7.27;;;;;;;7.77;100.00;97066.97;7395014;19;20386;-52
2022/04/07 02:52:50;;;;;;;10.50;3.87;;;;;;;7.76;100.00;97070.41;7389472;19;20419;-54
2022/04/07 02:55:24;;;;;;;7.67;5.17;;;;;;;7.82;100.00;97055.81;7393853;19;20416;-49
2022/04/07 02:57:53;;;;;;;9.20;5.77;;;;;;;7.81;100.00;97063.53;7387551;19;20438;-50
2022/04/07 03:00:22;;;;;;;11.17;6.77;;;;;;;7.65;100.00;97052.50;7398315;19;20402;-51
2022/04/07 03:02:52;;;;;;;11.30;8.23;;;;;;;7.63;100.00;97042.25;7388128;19;20410;-52
2022/04/07 03:05:22;;;;;;;13.50;5.07;;;;;;;7.47;100.00;97050.88;7394557;19;20746;-55
2022/04/07 03:07:51;;;;;;;10.70;4.90;;;;;;;7.37;100.00;97043.25;7386817;19;20410;-54
2022/04/07 03:10:23;;;;;;;8.50;5.97;;;;;;;7.26;100.00;97022.78;7393247;19;20909;-54
2022/04/07 03:12:53;;;;;;;13.17;7.97;;;;;;;7.21;100.00;96995.44;7388169;19;20429;-54
2022/04/07 03:15:23;;;;;;;9.73;4.37;;;;;;;7.10;100.00;96996.38;7393321;19;20456;-53
2022/04/07 03:17:52;;;;;;;10.50;6.67;;;;;;;7.12;100.00;96993.78;7386855;19;20800;-54
2022/04/07 03:20:22;;;;;;;12.40;7.60;;;;;;;7.16;100.00;96980.94;7394048;19;20387;-54
2022/04/07 03:22:51;;;;;;;10.20;7.20;;;;;;;7.19;100.00;96980.09;7388088;19;20797;-51
2022/04/07 03:25:23;;;;;;;11.90;8.00;;;;;;;7.24;100.00;96969.81;7393659;19;20459;-52
2022/04/07 03:27:53;;;;;;;14.80;7.60;;;;;;;7.24;100.00;96960.38;7387592;19;20420;-55
2022/04/07 03:30:22;;;;;;;11.50;8.10;;;;;;;7.29;100.00;96957.81;7393806;19;20392;-54
2022/04/07 03:32:52;;;;;;;14.73;11.70;;;;;;;7.30;100.00;96959.50;7385704;19;20421;-51
2022/04/07 03:35:21;;;;;;;14.50;9.70;;;;;;;7.43;100.00;96950.88;7392893;19;20385;-55
2022/04/07 03:37:51;;;;;;;16.20;11.30;;;;;;;7.51;100.00;96949.97;7386343;19;20425;-49
2022/04/07 03:40:24;;;;;;;16.20;10.27;;;;;;;7.57;100.00;96947.34;7393401;19;20391;-54
2022/04/07 03:42:54;;;;;;;6.20;4.53;;;;;;;7.61;100.00;96945.63;7383797;19;20422;-51
2022/04/07 03:45:23;;;;;;;15.03;8.90;;;;;;;7.62;100.00;96943.06;7393333;19;20394;-50
2022/04/07 03:47:53;;;;;;;14.20;10.30;;;;;;;7.77;100.00;96938.66;7386611;19;20425;-55
2022/04/07 03:50:22;;;;;;;11.53;7.43;;;;;;;7.68;100.00;96937.88;7398000;19;20402;-49
2022/04/07 03:52:52;;;;;;;14.10;10.90;;;;;;;7.73;100.00;96931.88;7399367;19;20430;-49
2022/04/07 03:55:24;;;;;;;12.20;8.30;;;;;;;7.65;100.00;96929.34;7399609;19;20906;-51
2022/04/07 03:57:54;;;;;;;13.80;7.33;;;;;;;7.69;100.00;96928.44;7394778;19;20479;-50
2022/04/07 04:00:23;;;;;;;10.40;6.50;;;;;;;7.70;100.00;96933.56;7400300;19;20384;-50
2022/04/07 04:02:53;;;;;;;12.30;6.80;;;;;;;7.77;100.00;96923.25;7390043;19;20421;-49
2022/04/07 04:05:23;;;;;;;11.27;6.97;;;;;;;7.74;100.00;96936.13;7400628;19;20387;-52
2022/04/07 04:07:52;;;;;;;10.33;7.87;;;;;;;7.76;100.00;96927.56;7392115;19;20771;-48
2022/04/07 04:10:25;;;;;;;8.77;5.20;;;;;;;7.84;100.00;96930.03;7402334;19;20395;-48
2022/04/07 04:12:54;;;;;;;9.20;5.63;;;;;;;7.77;100.00;96923.25;7393659;19;20496;-54
2022/04/07 04:15:24;;;;;;;8.27;5.80;;;;;;;7.81;100.00;96930.06;7399359;19;20401;-52
2022/04/07 04:17:54;;;;;;;13.20;8.30;;;;;;;7.79;100.00;96924.13;7388027;19;20429;-53
2022/04/07 04:20:23;;;;;;;11.17;7.20;;;;;;;7.78;100.00;96918.13;7399309;19;20394;-55
2022/04/07 04:22:53;;;;;;;7.67;4.80;;;;;;;7.74;100.00;96919.00;7394098;19;20775;-52
2022/04/07 04:25:25;;;;;;;11.00;4.57;;;;;;;7.76;100.00;96916.44;7399665;19;20388;-53
2022/04/07 04:27:54;;;;;;;9.43;5.33;;;;;;;7.78;100.00;96924.97;7391041;19;20415;-53
2022/04/07 04:30:25;;;;;;;12.43;5.33;;;;;;;7.82;100.00;96912.09;7399672;19;20390;-55
2022/04/07 04:32:55;;;;;;;16.30;11.10;;;;;;;7.84;100.00;96896.66;7392627;19;20538;-51
2022/04/07 04:35:24;;;;;;;8.97;5.40;;;;;;;7.79;100.00;96908.72;7398905;19;20758;-49
2022/04/07 04:37:54;;;;;;;8.00;5.07;;;;;;;7.83;100.00;96902.69;7391113;19;20414;-54
2022/04/07 04:40:26;;;;;;;8.13;5.20;;;;;;;7.78;100.00;96889.03;7399276;19;20405;-49
2022/04/07 04:42:55;;;;;;;6.10;4.87;;;;;;;7.77;100.00;96880.50;7390344;19;20420;-54
2022/04/07 04:45:25;;;;;;;7.03;5.57;;;;;;;7.72;100.00;96879.69;7400415;19;20404;-52
2022/04/07 04:47:55;;;;;;;7.67;6.77;;;;;;;7.73;100.00;96881.38;7388240;19;20415;-52
2022/04/07 04:50:26;;;;;;;6.87;4.27;;;;;;;7.69;100.00;96875.44;7399085;19;20388;-52
2022/04/07 04:52:55;;;;;;;8.70;4.43;;;;;;;7.66;100.00;96877.16;7392092;19;20525;-52
2022/04/07 04:55:27;;;;;;;4.63;3.20;;;;;;;7.73;100.00;96872.84;7398341;19;20466;-49
2022/04/07 04:57:57;;;;;;;7.07;5.80;;;;;;;7.76;100.00;96865.09;7391970;19;20521;-53
2022/04/07 05:00:26;;;;;;;4.30;3.33;;;;;;;7.69;100.00;96878.00;7398286;19;20381;-50
2022/04/07 05:02:56;;;;;;;9.03;6.20;;;;;;;7.74;100.00;96856.59;7390875;19;20414;-55
2022/04/07 05:05:25;;;;;;;10.23;6.47;;;;;;;7.66;100.00;96849.81;7398356;19;20394;-52
2022/04/07 05:07:55;;;;;;;7.90;5.63;;;;;;;7.60;100.00;96844.75;7395449;19;20438;-54
2022/04/07 05:10:24;;;;;;;8.70;6.57;;;;;;;7.64;100.00;96836.13;7397965;19;20401;-52
2022/04/07 05:12:58;;;;;;;4.93;3.90;;;;;;;7.57;100.00;96855.00;7392043;19;20946;-50
2022/04/07 05:15:28;;;;;;;9.50;6.40;;;;;;;7.63;100.00;96844.69;7402020;19;20797;-51
2022/04/07 05:17:57;;;;;;;12.10;6.20;;;;;;;7.57;100.00;96843.03;7395582;19;20419;-53
2022/04/07 05:20:27;;;;;;;10.20;5.90;;;;;;;7.55;100.00;96846.50;7397720;19;20621;-49
2022/04/07 05:22:56;;;;;;;10.73;6.80;;;;;;;7.56;100.00;96843.06;7392092;19;20420;-51
2022/04/07 05:25:26;;;;;;;8.10;5.10;;;;;;;7.54;100.00;96837.09;7397735;19;20384;-54
2022/04/07 05:27:58;;;;;;;8.33;5.73;;;;;;;7.61;100.00;96831.03;7391602;19;20434;-52
2022/04/07 05:30:27;;;;;;;8.20;5.13;;;;;;;7.59;100.00;96827.63;7397687;19;20383;-52
2022/04/07 05:32:57;;;;;;;6.70;4.73;;;;;;;7.57;100.00;96819.09;7393462;19;20420;-50
2022/04/07 05:35:28;;;;;;;5.97;3.50;;;;;;;7.58;100.00;96818.22;7397548;19;20741;-54
2022/04/07 05:38:02;;;;;;;11.27;5.33;;;;;;;7.62;100.00;96822.47;7395809;19;20403;-49
2022/04/07 05:40:33;;;;;;;9.97;5.03;;;;;;;7.62;100.00;96807.09;7396895;19;20988;-49
2022/04/07 05:43:05;;;;;;;6.47;3.17;;;;;;;7.60;100.00;96806.25;7396310;19;20407;-50
2022/04/07 05:45:36;;;;;;;7.77;5.40;;;;;;;7.64;100.00;96794.25;7391572;19;20395;-52
2022/04/07 05:48:07;;;;;;;10.17;4.03;;;;;;;7.63;100.00;96798.50;7397371;19;20789;-54
2022/04/07 05:50:36;;;;;;;6.67;3.53;;;;;;;7.64;100.00;96789.94;7388906;19;20392;-53
2022/04/07 05:53:06;;;;;;;6.27;3.97;;;;;;;7.61;100.00;96789.13;7396130;19;20380;-50
2022/04/07 05:55:36;;;;;;;9.13;4.37;;;;;;;7.51;100.00;96772.97;7390786;19;20399;-53
2022/04/07 05:58:09;;;;;;;8.87;5.67;;;;;;;7.50;100.00;96767.03;7393426;19;20423;-55
2022/04/07 06:00:40;;;;;;;6.93;5.03;;;;;;;7.38;100.00;96764.56;7390932;19;20983;-54
2022/04/07 06:03:09;;;;;;;7.93;5.40;;;;;;;7.40;100.00;96753.41;7397588;19;20412;-55
2022/04/07 06:05:39;;;;;;;4.97;2.50;;;;;;;7.27;100.00;96745.00;7387194;19;20396;-52
2022/04/07 06:08:09;;;;;;;3.40;2.77;;;;;;;7.25;100.00;96730.50;7394762;19;20416;-53
2022/04/07 06:10:38;;;;;;;9.47;4.80;;;;;;;7.27;100.00;96734.75;7389079;19;20726;-53
2022/04/07 06:13:11;;;;;;;5.10;2.73;;;;;;;7.32;100.00;96721.03;7393321;19;20634;-55
2022/04/07 06:15:41;;;;;;;4.43;2.43;;;;;;;7.32;100.00;96732.13;7390653;19;20944;-51
2022/04/07 06:18:11;;;;;;;5.30;3.60;;;;;;;7.39;100.00;96708.13;7392632;19;20399;-51
2022/04/07 06:20:40;;;;;;;6.40;3.90;;;;;;;7.46;100.00;96713.19;7389493;19;20727;-55
2022/04/07 06:23:10;;;;;;;9.77;3.87;;;;;;;7.50;100.00;96714.84;7396839;19;20821;-53
2022/04/07 06:25:40;;;;;;;6.37;2.90;;;;;;;7.56;100.00;96696.84;7390600;19;20396;-53
2022/04/07 06:28:12;;;;;;;5.43;3.87;;;;;;;7.60;100.00;96695.94;7394375;19;20474;-51
2022/04/07 06:30:42;;;;;;;4.27;2.97;;;;;;;7.68;100.00;96704.41;7390252;19;20388;-52
2022/04/07 06:33:11;;;;;;;8.53;2.50;;;;;;;7.70;100.00;96707.78;7395144;19;20406;-49
2022/04/07 06:35:41;;;;;;;6.83;3.00;;;;;;;7.76;100.00;96690.63;7388348;19;20384;-51
2022/04/07 06:38:10;;;;;;;9.60;5.00;;;;;;;7.79;100.00;96668.34;7392928;19;20775;-51
2022/04/07 06:40:40;;;;;;;12.40;5.00;;;;;;;7.80;100.00;96687.16;7389379;19;20393;-49
2022/04/07 06:43:12;;;;;;;10.87;6.57;;;;;;;7.87;100.00;96677.66;7394582;19;20476;-56
2022/04/07 06:45:41;;;;;;;8.97;5.90;;;;;;;7.86;100.00;96664.00;7386207;19;20757;-52
2022/04/07 06:48:11;;;;;;;7.17;3.50;;;;;;;7.90;100.00;96663.06;7393634;19;20427;-50
2022/04/07 06:50:42;;;;;;;7.00;5.23;;;;;;;7.96;100.00;96662.97;7387351;19;20394;-54
2022/04/07 06:53:12;;;;;;;8.27;4.50;;;;;;;7.93;100.00;96665.59;7394239;19;20376;-52
2022/04/07 06:55:43;;;;;;;8.60;4.80;;;;;;;7.92;100.00;96656.22;7388511;19;20387;-53
2022/04/07 06:58:15;;;;;;;7.77;4.80;;;;;;;7.91;100.00;96644.25;7392263;19;20406;-52
2022/04/07 07:00:46;;;;;;;8.43;4.07;;;;;;;7.94;100.00;96648.47;7386500;19;20391;-49
2022/04/07 07:03:17;;;;;;;7.57;3.73;;;;;;;7.96;100.00;96629.63;7393981;19;20455;-50
2022/04/07 07:05:47;;;;;;;11.70;3.80;;;;;;;7.96;100.00;96629.63;7388163;19;20384;-52
2022/04/07 07:08:18;;;;;;;6.10;4.20;;;;;;;8.02;100.00;96599.59;7392881;19;20407;-49
2022/04/07 07:10:49;;;;;;;8.67;4.50;;;;;;;8.01;100.00;96614.16;7388066;19;20402;-52
2022/04/07 07:13:22;;;;;;;12.17;4.07;;;;;;;8.09;100.00;96686.78;7393549;19;20402;-50
2022/04/07 07:15:55;;;;;;;6.80;4.83;;;;;;;8.13;100.00;96677.31;7387435;19;20777;-51
2022/04/07 07:18:24;;;;;;;10.83;3.70;;;;;;;8.18;100.00;96674.69;7391797;19;20447;-51
2022/04/07 07:20:54;;;;;;;7.17;4.27;;;;;;;8.26;100.00;96659.16;7387036;19;20418;-51
2022/04/07 07:23:23;;;;;;;7.40;3.80;;;;;;;8.29;100.00;96665.09;7396541;19;20761;-51
2022/04/07 07:25:53;;;;;;;6.83;3.10;;;;;;;8.31;100.00;96668.50;7386706;19;20437;-50
2022/04/07 07:28:25;;;;;;;7.17;3.73;;;;;;;8.32;100.00;96677.88;7392376;19;20417;-49
2022/04/07 07:30:54;;;;;;;11.40;3.10;;;;;;;8.29;100.00;96672.81;7385460;19;20421;-50
2022/04/07 07:33:24;;;;;;;8.53;3.70;;;;;;;8.26;100.00;96660.03;7393566;19;20388;-51
2022/04/07 07:35:53;;;;;;;3.73;3.10;;;;;;;8.20;100.00;96645.53;7386114;19;20404;-54
2022/04/07 07:38:23;;;;;;;9.70;3.93;;;;;;;8.20;100.00;96645.53;7391640;19;20423;-53
2022/04/07 07:40:52;;;;;;;9.87;4.93;;;;;;;8.18;100.00;96624.19;7387842;19;20454;-53
2022/04/07 07:43:24;;;;;;;7.10;3.40;;;;;;;8.04;100.00;96593.56;7393285;19;20391;-50
2022/04/07 07:45:54;;;;;;;7.70;4.10;;;;;;;8.04;100.00;96588.44;7386879;19;20450;-53
2022/04/07 07:48:28;;;;;;;7.83;5.23;;;;;;;7.88;100.00;96567.28;7391886;19;20423;-53
2022/04/07 07:50:59;;;;;;;9.07;4.90;;;;;;;7.82;100.00;96551.97;7384252;19;20418;-53
2022/04/07 07:53:29;;;;;;;7.50;3.57;;;;;;;7.86;100.00;96540.81;7393235;19;20396;-54
2022/04/07 07:55:58;;;;;;;8.53;4.03;;;;;;;7.74;100.00;96528.97;7389050;19;20436;-53
2022/04/07 07:58:30;;;;;;;9.67;3.03;;;;;;;7.67;100.00;96517.13;7395427;19;20422;-56
2022/04/07 08:01:00;;;;;;;6.90;3.50;;;;;;;7.55;100.00;96503.59;7385751;19;20430;-53
2022/04/07 08:03:30;;;;;;;5.20;3.07;;;;;;;7.38;100.00;96493.59;7392916;19;20396;-53
2022/04/07 08:05:59;;;;;;;9.87;3.73;;;;;;;7.37;100.00;96463.69;7386664;19;20414;-50
2022/04/07 08:08:29;;;;;;;8.40;2.70;;;;;;;7.34;100.00;96444.94;7390508;19;20418;-51
2022/04/07 08:10:58;;;;;;;10.57;4.20;;;;;;;7.31;100.00;96427.88;7390644;19;20933;-52
2022/04/07 08:13:30;;;;;;;6.67;3.47;;;;;;;7.34;100.00;96386.78;7396965;19;20402;-49
2022/04/07 08:16:00;;;;;;;6.37;2.77;;;;;;;7.32;100.00;96409.06;7384230;19;20417;-54
2022/04/07 08:18:31;;;;;;;9.70;4.50;;;;;;;7.31;100.00;96397.09;7394657;19;20433;-51
2022/04/07 08:21:00;;;;;;;2.53;2.03;;;;;;;7.28;100.00;96366.41;7385514;19;20487;-52
2022/04/07 08:23:30;;;;;;;14.10;5.57;;;;;;;7.28;100.00;96363.84;7393577;19;20396;-53
2022/04/07 08:25:59;;;;;;;10.07;3.50;;;;;;;7.28;100.00;96366.41;7384212;19;20406;-53
2022/04/07 08:28:31;;;;;;;5.40;3.40;;;;;;;7.30;100.00;96365.47;7392021;19;20788;-54
2022/04/07 08:31:01;;;;;;;15.30;4.23;;;;;;;7.34;100.00;96355.19;7384719;19;20414;-50
2022/04/07 08:33:30;;;;;;;4.13;2.90;;;;;;;7.27;100.00;96354.44;7395876;19;20409;-57
2022/04/07 08:36:00;;;;;;;7.03;4.30;;;;;;;7.25;100.00;96323.72;7386999;19;20425;-52
2022/04/07 08:38:29;;;;;;;8.40;3.00;;;;;;;7.25;100.00;96343.34;7396864;19;20422;-53
2022/04/07 08:40:59;;;;;;;13.53;5.07;;;;;;;7.28;100.00;96331.34;7390933;19;20419;-54
2022/04/07 08:43:33;;;;;;;3.30;2.63;;;;;;;7.33;100.00;96318.44;7399073;19;20396;-51
2022/04/07 08:46:03;;;;;;;8.30;4.40;;;;;;;7.37;100.00;96317.53;7392734;19;20501;-51
2022/04/07 08:48:33;;;;;;;6.20;2.87;;;;;;;7.34;100.00;96320.13;7397527;19;20430;-54
2022/04/07 08:51:03;;;;;;;5.20;1.70;;;;;;;7.25;100.00;96307.47;7391534;19;20416;-55
2022/04/07 08:53:36;;;;;;;5.67;2.50;;;;;;;7.20;100.00;96306.69;7398653;19;20395;-51
2022/04/07 08:56:07;;;;;;;7.40;3.30;;;;;;;7.19;100.00;96305.00;7389232;19;20420;-53
2022/04/07 08:58:39;;;;;;;11.13;5.50;;;;;;;7.12;100.00;96284.59;7396040;19;20415;-56
2022/04/07 09:01:08;;;;;;;4.33;2.47;;;;;;;6.99;100.00;96309.56;7391752;19;20927;-56
2022/04/07 09:03:38;;;;;;;3.70;2.30;;;;;;;6.82;100.00;96337.16;7398351;19;20388;-53
2022/04/07 09:06:08;;;;;;;3.00;1.60;;;;;;;5.61;100.00;96364.91;7391531;19;20768;-55
2022/04/07 09:08:40;;;;;;;2.03;1.03;;;;;;;4.77;100.00;96417.41;7395984;19;20400;-54
2022/04/07 09:11:10;;;;;;;1.33;0.60;;;;;;;4.18;100.00;96407.44;7391886;19;20422;-53
2022/04/07 09:13:44;;;;;;;3.33;0.90;;;;;;;3.95;100.00;96387.91;7398027;19;20402;-51
2022/04/07 09:16:16;;;;;;;1.67;0.60;;;;;;;3.84;100.00;96387.09;7390166;19;20415;-59
2022/04/07 09:18:47;;;;;;;2.97;0.77;;;;;;;3.79;100.00;96374.34;7395623;19;20440;-56
2022/04/07 09:21:26;;;;;;;1.60;0.50;;;;;;;3.75;100.00;96372.66;7390804;19;20419;-51
2022/04/07 09:23:56;;;;;;;1.70;0.77;;;;;;;3.73;100.00;96370.09;7396971;19;20737;-54
2022/04/07 09:26:25;;;;;;;1.20;0.50;;;;;;;3.67;100.00;96389.66;7391187;19;20419;-54
2022/04/07 09:29:00;;;;;;;6.70;0.80;;;;;;;3.72;100.00;96377.75;7398386;19;20431;-57
2022/04/07 09:31:29;;;;;;;3.60;1.50;;;;;;;3.68;100.00;96366.72;7390504;19;20414;-53
2022/04/07 09:34:01;;;;;;;1.40;0.70;;;;;;;3.69;100.00;96347.19;7397342;19;20394;-53
2022/04/07 09:36:31;;;;;;;1.53;0.50;;;;;;;3.69;100.00;96330.16;7388973;19;20407;-54
2022/04/07 09:39:01;;;;;;;4.10;0.50;;;;;;;3.74;100.00;96330.19;7395108;19;20429;-55
2022/04/07 09:41:31;;;;;;;1.30;0.50;;;;;;;3.74;100.00;96332.72;7392415;19;20450;-59
2022/04/07 09:44:05;;;;;;;4.40;0.90;;;;;;;3.81;100.00;96326.75;7402018;19;20914;-59
2022/04/07 09:46:38;;;;;;;1.67;1.00;;;;;;;3.86;100.00;96309.75;7389517;19;20427;-55
2022/04/07 09:49:09;;;;;;;1.63;0.70;;;;;;;3.84;100.00;96320.81;7397268;19;20423;-55
2022/04/07 09:51:40;;;;;;;1.73;0.70;;;;;;;3.86;100.00;96337.81;7392183;19;20960;-59
2022/04/07 09:54:12;;;;;;;3.97;0.70;;;;;;;3.84;100.00;96311.44;7397015;19;20535;-56
2022/04/07 09:56:42;;;;;;;3.40;1.37;;;;;;;3.81;100.00;96306.38;7391130;19;20419;-57
2022/04/07 09:59:17;;;;;;;1.60;0.50;;;;;;;3.73;100.00;96320.81;7394423;19;20487;-57
2022/04/07 10:01:50;;;;;;;4.50;1.00;;;;;;;3.73;100.00;96314.03;7389989;19;20439;-55
2022/04/07 10:04:22;;;;;;;8.00;0.80;;;;;;;3.74;100.00;96313.16;7397656;19;20406;-54
2022/04/07 10:06:52;;;;;;;2.20;0.67;;;;;;;3.75;100.00;96307.22;7390029;19;20491;-55
2022/04/07 10:09:22;;;;;;;2.67;0.60;;;;;;;3.73;100.00;96302.97;7393032;19;20452;-56
2022/04/07 10:11:52;;;;;;;1.47;0.57;;;;;;;3.67;100.00;96297.88;7391636;19;20411;-56
2022/04/07 10:14:26;;;;;;;2.60;1.63;;;;;;;3.63;100.00;96302.13;7396745;19;20395;-56
2022/04/07 10:16:55;;;;;;;3.07;1.03;;;;;;;3.65;100.00;96407.50;7390563;19;20402;-55
2022/04/07 10:19:31;;;;;;;2.83;0.80;;;;;;;3.55;100.00;96421.09;7393505;19;20499;-52
2022/04/07 10:22:13;;;;;;;3.60;0.70;;;;;;;3.51;100.00;96410.06;7389785;19;20425;-56
2022/04/07 10:24:46;;;;;;;1.33;0.60;;;;;;;3.48;100.00;96410.03;7398792;19;20925;-56
2022/04/07 10:27:34;;;;;;;1.20;0.40;;;;;;;3.48;100.00;96412.59;7388981;19;20495;-57
2022/04/07 10:30:10;;;;;;;2.83;0.90;;;;;;;3.53;100.00;96422.81;7393481;19;20828;-55
2022/04/07 10:32:41;;;;;;;5.83;2.30;;;;;;;3.53;100.00;96420.25;7382697;19;20413;-53
2022/04/07 10:35:12;;;;;;;1.70;0.70;;;;;;;3.42;100.00;96410.03;7395412;19;20388;-57
2022/04/07 10:37:45;;;;;;;2.70;0.73;;;;;;;3.34;100.00;96404.97;7382875;19;20415;-54
2022/04/07 10:40:40;;;;;;;1.17;0.50;;;;;;;3.33;100.00;96411.75;7393541;19;20394;-58
2022/04/07 10:43:21;;;;;;;5.23;1.23;;;;;;;3.28;100.00;96393.03;7394478;19;20482;-56
2022/04/07 10:45:55;;;;;;;1.70;0.90;;;;;;;3.34;100.00;96382.84;7387667;19;21095;-56
2022/04/07 10:48:29;;;;;;;3.07;0.93;;;;;;;3.20;100.00;96390.50;7394121;19;20396;-56
2022/04/07 10:51:01;;;;;;;1.30;0.50;;;;;;;3.14;100.00;96382.00;7390665;19;20814;-52
2022/04/07 10:53:32;;;;;;;1.80;0.63;;;;;;;3.07;100.00;96394.72;7394436;19;20395;-59
2022/04/07 10:56:05;;;;;;;1.53;0.80;;;;;;;3.11;100.00;96395.59;7382418;19;20407;-55
2022/04/07 10:58:46;;;;;;;1.80;0.50;;;;;;;3.12;100.00;96412.56;7392308;19;20702;-56
2022/04/07 11:01:20;;;;;;;1.93;0.50;;;;;;;3.15;100.00;96438.03;7384873;19;20490;-51
2022/04/07 11:04:20;;;;;;;2.60;0.90;;;;;;;3.21;100.00;96445.69;7394336;19;20388;-55
2022/04/07 11:07:28;;;;;;;4.00;2.27;;;;;;;3.18;100.00;96432.94;7385495;19;21032;-56
2022/04/07 11:10:13;;;;;;;8.33;5.30;;;;;;;3.23;100.00;96438.06;7391687;19;20427;-55
2022/04/07 11:12:46;;;;;;;4.33;1.90;;;;;;;3.26;100.00;96440.59;7388794;19;20443;-56
2022/04/07 11:15:34;;;;;;;1.70;0.80;;;;;;;3.25;100.00;96428.72;7397401;19;20935;-56
2022/04/07 11:18:34;;;;;;;1.80;0.80;;;;;;;3.41;100.00;96423.63;7392567;19;21009;-60
2022/04/07 11:21:05;;;;;;;4.27;2.67;;;;;;;3.80;100.00;96441.50;7383348;19;20402;-58
2022/04/07 11:23:45;;;;;;;1.83;1.10;;;;;;;3.76;100.00;96431.28;7395839;19;20380;-56
2022/04/07 11:26:22;;;;;;;1.60;0.70;;;;;;;3.93;100.00;96425.31;7387963;19;20439;-56
2022/04/07 11:29:07;;;;;;;1.83;0.93;;;;;;;4.27;100.00;96457.59;7391929;19;20403;-57
2022/04/07 11:31:48;;;;;;;3.43;1.40;;;;;;;4.31;100.00;96433.78;7385495;19;20403;-56
2022/04/07 11:35:00;;;;;;;2.00;1.37;;;;;;;4.27;100.00;96422.72;7393719;19;20390;-54
2022/04/07 11:37:41;;;;;;;2.70;1.70;;;;;;;4.56;100.00;96413.28;7386746;19;20423;-55
2022/04/07 11:40:11;;;;;;;2.97;1.67;;;;;;;4.49;100.00;96409.03;7393785;19;20431;-59
2022/04/07 11:42:42;;;;;;;5.83;2.10;;;;;;;4.61;100.00;96414.09;7385542;19;20407;-51
2022/04/07 11:45:12;;;;;;;7.70;2.80;;;;;;;4.83;100.00;96402.06;7393131;19;20388;-54
2022/04/07 11:47:41;;;;;;;6.17;2.63;;;;;;;4.94;100.00;96398.63;7384401;19;20416;-55
2022/04/07 11:50:11;;;;;;;2.60;1.67;;;;;;;4.81;100.00;96397.81;7393502;19;20380;-56
2022/04/07 11:52:43;;;;;;;2.03;1.13;;;;;;;4.71;100.00;96403.00;7389675;19;20526;-56